Time;durP1;ratioP1;P1;durP2;ratioP2;P2;SDS_P1;SDS_P2;PMS_P1;PMS_P2;Temp;Humidity;BMP_temperature;BMP_pressure;BME280_temperature;BME280_humidity;BME280_pressure;Samples;Min_cycle;Max_cycle;Signal;HPM_P1;HPM_P2
2022/03/10 00:01:50;;;;;;;23.27;10.77;;;6.40;71.60;;;;;;5118693;27;20118;-74
2022/03/10 00:04:16;;;;;;;21.27;10.65;;;6.50;71.60;;;;;;5101494;27;20485;-73
2022/03/10 00:06:41;;;;;;;18.05;10.68;;;6.50;71.80;;;;;;5101558;27;20043;-73
2022/03/10 00:09:07;;;;;;;21.10;11.02;;;6.40;72.20;;;;;;5101215;27;20049;-73
2022/03/10 00:11:33;;;;;;;20.20;10.40;;;6.40;71.80;;;;;;5118052;27;20130;-73
2022/03/10 00:13:59;;;;;;;21.00;10.43;;;6.30;72.10;;;;;;5083643;27;20058;-73
2022/03/10 00:16:25;;;;;;;21.10;10.68;;;6.30;71.80;;;;;;5101384;27;20065;-73
2022/03/10 00:18:51;;;;;;;20.75;10.63;;;6.10;71.80;;;;;;5118271;27;20058;-73
2022/03/10 00:21:17;;;;;;;22.95;10.85;;;6.00;72.50;;;;;;5101296;27;20133;-73
2022/03/10 00:23:42;;;;;;;19.73;10.70;;;6.00;72.60;;;;;;5101221;27;20390;-73
2022/03/10 00:26:08;;;;;;;18.60;10.13;;;5.90;72.90;;;;;;5118697;27;20452;-73
2022/03/10 00:28:34;;;;;;;19.08;10.60;;;5.90;73.10;;;;;;5117987;27;20039;-73
2022/03/10 00:31:00;;;;;;;20.40;10.88;;;5.90;74.00;;;;;;5118590;27;20051;-73
2022/03/10 00:33:26;;;;;;;20.33;10.10;;;5.80;74.00;;;;;;5083980;27;20042;-73
2022/03/10 00:35:51;;;;;;;22.17;11.05;;;5.90;74.20;;;;;;5117604;27;20084;-73
2022/03/10 00:38:18;;;;;;;20.25;11.18;;;6.00;73.20;;;;;;5118384;27;20096;-73
2022/03/10 00:40:44;;;;;;;23.40;11.27;;;6.00;73.50;;;;;;5117271;27;20051;-73
2022/03/10 00:43:14;;;;;;;19.77;10.93;;;5.90;73.20;;;;;;5117483;27;20043;-73
2022/03/10 00:45:40;;;;;;;25.17;10.95;;;5.90;74.00;;;;;;5117690;27;20039;-74
2022/03/10 00:48:07;;;;;;;21.60;11.52;;;6.00;74.30;;;;;;5117593;27;20116;-74
2022/03/10 00:50:33;;;;;;;17.13;9.95;;;6.00;74.00;;;;;;5117366;27;20188;-74
2022/03/10 00:53:01;;;;;;;22.52;11.50;;;6.00;73.90;;;;;;5117905;27;20130;-74
2022/03/10 00:55:27;;;;;;;18.08;10.85;;;5.90;74.00;;;;;;5117087;27;20371;-73
2022/03/10 00:57:52;;;;;;;18.75;10.82;;;5.80;74.50;;;;;;5100519;27;20191;-73
2022/03/10 01:00:19;;;;;;;20.42;10.90;;;5.70;74.70;;;;;;5117199;27;20404;-73
2022/03/10 01:02:45;;;;;;;23.23;10.80;;;5.70;74.70;;;;;;5117417;27;20051;-73
2022/03/10 01:05:11;;;;;;;25.23;12.48;;;5.60;74.90;;;;;;5117491;27;20047;-73
2022/03/10 01:07:37;;;;;;;23.35;10.77;;;5.50;75.00;;;;;;5116879;27;20047;-73
2022/03/10 01:10:05;;;;;;;18.92;10.27;;;5.60;76.00;;;;;;5116873;27;20082;-73
2022/03/10 01:12:31;;;;;;;20.70;10.75;;;5.70;76.30;;;;;;5117247;27;20079;-73
2022/03/10 01:14:57;;;;;;;22.98;10.32;;;5.60;75.20;;;;;;5117740;27;20383;-73
2022/03/10 01:17:23;;;;;;;19.08;10.35;;;5.50;75.10;;;;;;5117247;27;20112;-73
2022/03/10 01:19:49;;;;;;;23.02;10.95;;;5.50;76.20;;;;;;5117036;27;20085;-73
2022/03/10 01:22:15;;;;;;;20.05;10.75;;;5.60;76.20;;;;;;5083806;27;20134;-73
2022/03/10 01:24:41;;;;;;;26.55;11.95;;;5.60;75.80;;;;;;5116687;28;20100;-73
2022/03/10 01:27:08;;;;;;;22.15;10.57;;;5.40;75.60;;;;;;5116348;27;20434;-73
2022/03/10 01:29:34;;;;;;;23.58;11.70;;;5.40;76.10;;;;;;5100006;27;20081;-73
2022/03/10 01:32:00;;;;;;;22.65;10.90;;;5.30;76.00;;;;;;5117444;27;20082;-73
2022/03/10 01:34:26;;;;;;;20.15;11.20;;;5.20;76.20;;;;;;5116819;27;20530;-73
2022/03/10 01:36:51;;;;;;;21.08;11.00;;;5.20;76.60;;;;;;5099749;27;20047;-73
2022/03/10 01:39:18;;;;;;;20.95;11.05;;;5.20;76.40;;;;;;5116796;27;20047;-73
2022/03/10 01:41:44;;;;;;;20.55;10.63;;;5.30;76.80;;;;;;5116342;27;20035;-74
2022/03/10 01:44:11;;;;;;;25.30;11.65;;;5.30;77.20;;;;;;5116716;27;20073;-74
2022/03/10 01:46:37;;;;;;;25.20;11.98;;;5.30;76.90;;;;;;5099226;27;20097;-73
2022/03/10 01:49:04;;;;;;;22.23;11.45;;;5.30;76.70;;;;;;5116432;27;20087;-73
2022/03/10 01:51:31;;;;;;;23.23;11.98;;;5.40;76.10;;;;;;5115885;28;20111;-74
2022/03/10 01:53:58;;;;;;;21.92;12.02;;;5.50;76.40;;;;;;5099411;27;20054;-73
2022/03/10 01:56:24;;;;;;;23.58;11.40;;;5.60;76.40;;;;;;5116380;27;20043;-73
2022/03/10 01:58:52;;;;;;;22.70;11.68;;;5.60;76.80;;;;;;5099495;27;20054;-73
2022/03/10 02:01:18;;;;;;;19.58;10.75;;;5.50;76.60;;;;;;5116577;27;20051;-73
2022/03/10 02:03:44;;;;;;;22.20;11.52;;;5.40;76.80;;;;;;5099602;27;20047;-73
2022/03/10 02:06:10;;;;;;;26.23;11.32;;;5.30;76.90;;;;;;5099426;28;20051;-73
2022/03/10 02:11:21;;;;;;;27.00;11.77;;;5.10;77.70;;;;;;5116105;28;20058;-73
2022/03/10 02:13:47;;;;;;;22.00;11.02;;;5.00;77.50;;;;;;5116174;28;20051;-73
2022/03/10 02:18:59;;;;;;;22.27;11.02;;;5.00;77.40;;;;;;5116653;28;20147;-73
2022/03/10 02:21:26;;;;;;;21.63;11.25;;;5.00;78.10;;;;;;5117084;28;20087;-73
2022/03/10 02:23:52;;;;;;;24.83;11.95;;;5.10;77.60;;;;;;5116734;28;20070;-74
2022/03/10 02:26:18;;;;;;;23.77;11.38;;;5.10;77.30;;;;;;5115910;28;20405;-73
2022/03/10 02:28:43;;;;;;;25.10;11.70;;;5.10;77.50;;;;;;5099016;28;20043;-73
2022/03/10 02:31:10;;;;;;;22.42;11.65;;;5.00;77.40;;;;;;5098945;28;20478;-74
2022/03/10 02:33:36;;;;;;;21.17;10.80;;;5.10;77.70;;;;;;5115948;28;20100;-74
2022/03/10 02:36:03;;;;;;;20.10;11.00;;;5.10;77.70;;;;;;5116560;27;20464;-74
2022/03/10 02:38:29;;;;;;;19.20;10.95;;;5.10;78.10;;;;;;5120175;27;20053;-74
2022/03/10 02:40:55;;;;;;;21.75;10.75;;;5.10;77.70;;;;;;5119529;27;20047;-73
2022/03/10 02:43:22;;;;;;;20.13;11.10;;;5.00;77.20;;;;;;5102903;27;20084;-74
2022/03/10 02:45:48;;;;;;;20.52;10.80;;;4.90;77.30;;;;;;5119828;27;20043;-73
2022/03/10 02:48:15;;;;;;;21.98;11.32;;;4.90;77.90;;;;;;5120324;27;20047;-74
2022/03/10 02:50:41;;;;;;;23.55;10.98;;;4.80;77.60;;;;;;5098991;28;20129;-73
2022/03/10 02:53:07;;;;;;;23.88;11.40;;;4.70;77.20;;;;;;5116648;28;20113;-73
2022/03/10 02:55:33;;;;;;;21.73;10.98;;;4.60;77.40;;;;;;5116258;28;20501;-73
2022/03/10 02:57:59;;;;;;;24.20;11.25;;;4.60;77.40;;;;;;5116444;28;20178;-74
2022/03/10 03:00:25;;;;;;;26.13;11.85;;;4.50;77.80;;;;;;5116168;28;20126;-74
2022/03/10 03:02:50;;;;;;;23.33;11.23;;;4.40;78.10;;;;;;5099421;28;20047;-73
2022/03/10 03:05:16;;;;;;;21.02;10.45;;;4.40;77.90;;;;;;5116324;28;20054;-73
2022/03/10 03:07:45;;;;;;;22.08;10.98;;;4.30;78.10;;;;;;5116205;28;20047;-75
2022/03/10 03:10:12;;;;;;;25.30;11.63;;;4.20;78.60;;;;;;5098826;28;20051;-74
2022/03/10 03:12:50;;;;;;;22.88;11.30;;;4.30;78.90;;;;;;5116627;28;20051;-73
2022/03/10 03:15:17;;;;;;;24.27;11.30;;;4.30;78.40;;;;;;5098848;28;20167;-73
2022/03/10 03:17:43;;;;;;;21.85;11.20;;;4.30;78.20;;;;;;5115610;28;20044;-74
2022/03/10 03:20:14;;;;;;;24.77;11.95;;;4.40;78.20;;;;;;5115678;28;20051;-73
2022/03/10 03:22:43;;;;;;;21.98;11.13;;;4.50;78.00;;;;;;5116133;28;20146;-73
2022/03/10 03:25:11;;;;;;;21.08;10.43;;;4.60;77.80;;;;;;5115058;28;20052;-73
2022/03/10 03:27:36;;;;;;;21.90;10.55;;;4.70;78.30;;;;;;5115177;28;20491;-73
2022/03/10 03:30:04;;;;;;;24.23;11.48;;;4.70;77.50;;;;;;5115035;28;20104;-74
2022/03/10 03:32:30;;;;;;;23.33;10.93;;;4.50;77.40;;;;;;5098118;28;20440;-73
2022/03/10 03:34:56;;;;;;;23.55;11.80;;;4.60;78.10;;;;;;5116319;28;20040;-74
2022/03/10 03:37:21;;;;;;;22.00;11.55;;;4.60;78.20;;;;;;5115116;28;20049;-74
2022/03/10 03:39:47;;;;;;;23.33;11.27;;;4.60;77.60;;;;;;5115121;28;20044;-74
2022/03/10 03:42:13;;;;;;;24.08;11.15;;;4.60;77.70;;;;;;5114694;28;20055;-74
2022/03/10 03:44:38;;;;;;;24.75;11.80;;;4.70;77.70;;;;;;5098084;28;20044;-74
2022/03/10 03:47:04;;;;;;;21.83;10.90;;;4.60;77.70;;;;;;5114996;28;20048;-74
2022/03/10 03:49:30;;;;;;;21.23;10.68;;;4.60;77.30;;;;;;5099386;27;20051;-74
2022/03/10 03:51:55;;;;;;;20.73;10.65;;;4.50;77.40;;;;;;5101780;27;20051;-74
2022/03/10 03:54:21;;;;;;;21.48;11.07;;;4.50;77.50;;;;;;5118235;27;20051;-74
2022/03/10 03:56:47;;;;;;;21.83;10.32;;;4.50;77.50;;;;;;5118175;27;20132;-74
2022/03/10 03:59:12;;;;;;;21.70;11.07;;;4.50;77.90;;;;;;5101084;27;20050;-74
2022/03/10 04:01:38;;;;;;;20.30;10.38;;;4.60;77.50;;;;;;5101269;27;20465;-73
2022/03/10 04:04:04;;;;;;;24.67;10.38;;;4.50;77.20;;;;;;5117843;27;20050;-74
2022/03/10 04:06:29;;;;;;;21.15;10.38;;;4.50;77.70;;;;;;5118698;27;20154;-74
2022/03/10 04:08:55;;;;;;;17.33;10.25;;;4.50;77.30;;;;;;5117677;27;20043;-74
2022/03/10 04:11:21;;;;;;;27.00;11.65;;;4.40;77.30;;;;;;5117401;27;20051;-74
2022/03/10 04:13:47;;;;;;;23.83;10.93;;;4.40;77.40;;;;;;5100786;27;20055;-74
2022/03/10 04:16:13;;;;;;;24.02;11.30;;;4.40;77.20;;;;;;5117480;27;20093;-74
2022/03/10 04:18:38;;;;;;;18.42;9.68;;;4.40;77.10;;;;;;5083705;27;20106;-74
2022/03/10 04:21:04;;;;;;;21.45;10.80;;;4.40;77.00;;;;;;5101192;27;20051;-74
2022/03/10 04:23:30;;;;;;;22.83;10.15;;;4.40;77.00;;;;;;5117570;27;20054;-74
2022/03/10 04:25:55;;;;;;;21.38;10.65;;;4.40;76.60;;;;;;5117603;27;20111;-74
2022/03/10 04:28:24;;;;;;;21.13;10.25;;;4.30;76.60;;;;;;5100257;27;20043;-74
2022/03/10 04:30:50;;;;;;;22.88;10.68;;;4.40;76.40;;;;;;5117388;27;20504;-74
2022/03/10 04:33:16;;;;;;;19.00;10.15;;;4.50;76.60;;;;;;5117156;27;20047;-74
2022/03/10 04:35:41;;;;;;;20.58;10.15;;;4.50;75.90;;;;;;5117145;27;20130;-74
2022/03/10 04:38:07;;;;;;;20.52;9.90;;;4.50;76.30;;;;;;5100250;27;20042;-74
2022/03/10 04:40:33;;;;;;;22.35;10.77;;;4.60;76.00;;;;;;5099853;27;20046;-74
2022/03/10 04:42:59;;;;;;;18.63;10.32;;;4.60;75.50;;;;;;5116981;27;20108;-74
2022/03/10 04:45:25;;;;;;;20.13;9.90;;;4.50;75.80;;;;;;5099920;27;20043;-74
2022/03/10 04:47:51;;;;;;;19.55;10.65;;;4.50;75.70;;;;;;5100065;27;20362;-74
2022/03/10 04:50:18;;;;;;;18.92;9.93;;;4.50;75.60;;;;;;5116761;27;20099;-74
2022/03/10 04:52:44;;;;;;;20.70;10.23;;;4.40;76.50;;;;;;5117082;27;20432;-74
2022/03/10 04:55:11;;;;;;;20.20;10.52;;;4.30;76.00;;;;;;5116963;27;20099;-73
2022/03/10 04:57:37;;;;;;;23.52;10.52;;;4.40;76.00;;;;;;5116951;27;20401;-73
2022/03/10 05:00:08;;;;;;;22.20;10.82;;;4.40;76.10;;;;;;5099620;27;20067;-73
2022/03/10 05:02:35;;;;;;;19.73;10.20;;;4.40;76.20;;;;;;5117248;27;20062;-74
2022/03/10 05:05:02;;;;;;;18.92;9.77;;;4.40;76.40;;;;;;5117004;27;20058;-74
2022/03/10 05:07:28;;;;;;;23.05;10.82;;;4.30;76.30;;;;;;5116797;27;20089;-74
2022/03/10 05:09:53;;;;;;;23.80;10.63;;;4.30;76.30;;;;;;5099480;27;20078;-73
2022/03/10 05:12:19;;;;;;;20.63;9.95;;;4.30;76.90;;;;;;5116367;27;20126;-74
2022/03/10 05:14:45;;;;;;;21.83;9.88;;;4.20;76.50;;;;;;5116844;27;20043;-74
2022/03/10 05:17:10;;;;;;;21.42;10.05;;;4.10;76.90;;;;;;5082772;27;20046;-74
2022/03/10 05:19:36;;;;;;;20.90;10.18;;;4.10;76.70;;;;;;5116933;28;20402;-74
2022/03/10 05:22:03;;;;;;;28.30;10.98;;;4.10;76.80;;;;;;5116766;27;20047;-74
2022/03/10 05:24:28;;;;;;;21.05;10.18;;;4.20;77.20;;;;;;5116440;27;20058;-74
2022/03/10 05:26:54;;;;;;;17.60;9.68;;;4.20;77.00;;;;;;5100109;27;20051;-74
2022/03/10 05:29:20;;;;;;;22.23;10.20;;;4.30;77.00;;;;;;5097979;27;20060;-74
2022/03/10 05:31:45;;;;;;;21.23;10.63;;;4.30;77.00;;;;;;5097881;27;20069;-76
2022/03/10 05:34:11;;;;;;;20.30;10.15;;;4.30;77.20;;;;;;5099376;27;20043;-74
2022/03/10 05:36:37;;;;;;;21.50;10.38;;;4.30;77.60;;;;;;5116538;27;20132;-73
2022/03/10 05:39:04;;;;;;;24.05;11.18;;;4.50;77.50;;;;;;5099611;27;20039;-74
2022/03/10 05:41:32;;;;;;;21.35;10.65;;;4.50;76.90;;;;;;5116113;27;20047;-74
2022/03/10 05:43:58;;;;;;;20.02;10.50;;;4.50;77.10;;;;;;5116386;27;20119;-73
2022/03/10 05:46:24;;;;;;;20.10;10.23;;;4.50;77.20;;;;;;5116321;27;20107;-74
2022/03/10 05:48:49;;;;;;;19.83;10.57;;;4.60;76.60;;;;;;5099405;27;20043;-74
2022/03/10 05:51:15;;;;;;;19.80;10.90;;;4.60;76.60;;;;;;5098893;27;20397;-74
2022/03/10 05:53:41;;;;;;;21.38;10.25;;;4.60;77.40;;;;;;5116075;27;20500;-74
2022/03/10 05:56:07;;;;;;;20.45;10.35;;;4.50;76.50;;;;;;5099005;27;20043;-74
2022/03/10 05:58:33;;;;;;;24.73;10.75;;;4.50;77.00;;;;;;5099137;27;20047;-74
2022/03/10 06:00:58;;;;;;;21.98;10.70;;;4.40;77.20;;;;;;5099283;28;20047;-74
2022/03/10 06:03:24;;;;;;;21.58;11.05;;;4.40;77.00;;;;;;5116518;27;20039;-74
2022/03/10 06:05:50;;;;;;;23.40;10.55;;;4.40;77.60;;;;;;5098775;27;20134;-73
2022/03/10 06:08:15;;;;;;;24.65;12.05;;;4.40;77.80;;;;;;5115986;28;20141;-74
2022/03/10 06:10:41;;;;;;;27.33;10.90;;;4.40;77.50;;;;;;5115077;27;20039;-74
2022/03/10 06:13:07;;;;;;;20.67;10.18;;;4.40;76.80;;;;;;5115746;28;20090;-74
2022/03/10 06:15:33;;;;;;;23.92;10.50;;;4.40;77.00;;;;;;5116049;28;20055;-74
2022/03/10 06:17:58;;;;;;;22.30;11.05;;;4.40;77.80;;;;;;5115850;28;20453;-74
2022/03/10 06:20:25;;;;;;;20.50;10.70;;;4.40;77.70;;;;;;5115941;28;20534;-74
2022/03/10 06:22:51;;;;;;;22.25;11.48;;;4.40;77.80;;;;;;5082412;28;20397;-74
2022/03/10 06:25:16;;;;;;;23.60;11.32;;;4.30;77.50;;;;;;5098881;28;20047;-74
2022/03/10 06:27:42;;;;;;;20.52;10.82;;;4.20;77.70;;;;;;5098657;28;20092;-74
2022/03/10 06:30:09;;;;;;;21.23;10.75;;;4.20;77.90;;;;;;5115828;28;20085;-74
2022/03/10 06:32:34;;;;;;;25.98;11.10;;;4.20;77.70;;;;;;5115942;28;20069;-74
2022/03/10 06:35:00;;;;;;;20.33;10.65;;;4.40;77.60;;;;;;5098650;28;20043;-74
2022/03/10 06:37:26;;;;;;;22.48;11.18;;;4.40;77.60;;;;;;5115873;28;20047;-74
2022/03/10 06:39:52;;;;;;;22.63;10.65;;;4.50;77.30;;;;;;5082004;28;20466;-74
2022/03/10 06:42:18;;;;;;;21.92;10.52;;;4.40;77.10;;;;;;5115137;28;20059;-74
2022/03/10 06:44:44;;;;;;;25.60;10.88;;;4.30;77.40;;;;;;5115665;28;20417;-74
2022/03/10 06:47:10;;;;;;;20.35;9.93;;;4.40;77.40;;;;;;5098906;28;20135;-73
2022/03/10 06:49:36;;;;;;;20.70;10.18;;;4.40;78.10;;;;;;5115146;28;20096;-74
2022/03/10 06:52:01;;;;;;;23.52;10.98;;;4.50;78.20;;;;;;5115984;28;20051;-74
2022/03/10 06:54:27;;;;;;;20.45;10.55;;;4.50;77.70;;;;;;5134176;28;20046;-74
2022/03/10 06:56:53;;;;;;;21.65;10.95;;;4.50;78.60;;;;;;5098719;28;20058;-74
2022/03/10 06:59:19;;;;;;;21.95;10.57;;;4.50;77.70;;;;;;5115851;28;20083;-75
2022/03/10 07:01:44;;;;;;;19.88;10.32;;;4.40;78.30;;;;;;5099045;28;20046;-74
2022/03/10 07:04:10;;;;;;;23.45;10.75;;;4.40;77.80;;;;;;5115814;28;20039;-74
2022/03/10 07:06:36;;;;;;;26.77;11.10;;;4.30;78.10;;;;;;5115839;28;20043;-75
2022/03/10 07:09:03;;;;;;;19.23;10.40;;;4.40;78.10;;;;;;5115275;28;20147;-74
2022/03/10 07:11:28;;;;;;;19.15;9.80;;;4.50;78.00;;;;;;5098474;28;20047;-74
2022/03/10 07:13:54;;;;;;;21.63;10.55;;;4.60;78.40;;;;;;5116358;28;20047;-74
2022/03/10 07:16:20;;;;;;;24.70;11.07;;;4.70;77.90;;;;;;5115682;28;20039;-74
2022/03/10 07:18:51;;;;;;;24.63;10.93;;;4.70;77.90;;;;;;5115443;28;20096;-74
2022/03/10 07:21:20;;;;;;;20.20;10.40;;;4.80;78.00;;;;;;5115493;28;20057;-74
2022/03/10 07:23:46;;;;;;;22.83;11.13;;;4.90;78.00;;;;;;5099974;27;20095;-74
2022/03/10 07:26:12;;;;;;;18.17;10.18;;;4.80;77.40;;;;;;5103270;27;20051;-74
2022/03/10 07:28:38;;;;;;;19.88;10.68;;;4.90;78.00;;;;;;5119818;27;20043;-74
2022/03/10 07:31:04;;;;;;;25.13;11.18;;;5.10;78.10;;;;;;5119299;27;20043;-74
2022/03/10 07:33:30;;;;;;;21.42;10.77;;;5.20;77.90;;;;;;5119407;27;20039;-74
2022/03/10 07:35:55;;;;;;;19.92;10.02;;;5.20;77.70;;;;;;5102408;27;20052;-74
2022/03/10 07:38:21;;;;;;;21.60;10.70;;;5.30;77.10;;;;;;5119152;27;20051;-74
2022/03/10 07:40:47;;;;;;;20.55;10.85;;;5.40;76.90;;;;;;5118556;27;20047;-74
2022/03/10 07:43:13;;;;;;;24.08;11.02;;;5.40;77.40;;;;;;5101878;27;20047;-74
2022/03/10 07:45:38;;;;;;;19.70;10.57;;;5.40;77.20;;;;;;5101901;27;20043;-74
2022/03/10 07:48:05;;;;;;;26.15;11.40;;;5.40;77.50;;;;;;5118421;27;20096;-74
2022/03/10 07:50:30;;;;;;;23.02;10.52;;;5.50;77.00;;;;;;5101580;27;20497;-74
2022/03/10 07:52:56;;;;;;;24.65;11.18;;;5.60;77.50;;;;;;5118695;27;20085;-74
2022/03/10 07:55:22;;;;;;;28.05;11.30;;;5.70;76.90;;;;;;5122460;27;20497;-73
2022/03/10 07:57:49;;;;;;;22.98;11.90;;;5.80;76.60;;;;;;5119154;27;20153;-74
2022/03/10 08:00:15;;;;;;;22.52;11.27;;;5.90;77.00;;;;;;5118512;27;20055;-74
2022/03/10 08:02:41;;;;;;;23.23;11.23;;;6.00;76.70;;;;;;5118657;27;20394;-74
2022/03/10 08:05:08;;;;;;;21.92;11.75;;;6.00;77.00;;;;;;5118684;27;20047;-75
2022/03/10 08:07:34;;;;;;;23.88;11.77;;;6.00;77.30;;;;;;5118247;27;20127;-74
2022/03/10 08:10:06;;;;;;;28.25;12.05;;;6.10;76.60;;;;;;5118137;27;20126;-74
2022/03/10 08:12:33;;;;;;;21.02;10.95;;;6.20;76.80;;;;;;5118541;27;20051;-75
2022/03/10 08:15:00;;;;;;;20.33;11.35;;;6.20;76.90;;;;;;5101727;27;20035;-75
2022/03/10 08:17:26;;;;;;;21.08;11.65;;;6.20;77.10;;;;;;5118126;27;20051;-75
2022/03/10 08:19:52;;;;;;;20.13;11.18;;;6.30;77.60;;;;;;5118029;27;20371;-75
2022/03/10 08:22:20;;;;;;;19.48;10.35;;;6.60;77.80;;;;;;5102045;27;20096;-77
2022/03/10 08:24:46;;;;;;;22.67;11.13;;;6.60;77.20;;;;;;5101316;27;20043;-79
2022/03/10 08:27:14;;;;;;;25.58;12.00;;;6.70;77.20;;;;;;5118252;27;20050;-76
2022/03/10 08:29:40;;;;;;;22.27;11.38;;;6.80;76.80;;;;;;5118190;27;20051;-77
2022/03/10 08:32:07;;;;;;;24.23;11.05;;;6.90;76.80;;;;;;5101123;27;20047;-78
2022/03/10 08:34:32;;;;;;;24.55;11.80;;;7.00;76.50;;;;;;5117919;27;20390;-76
2022/03/10 08:36:59;;;;;;;19.85;11.13;;;7.10;76.60;;;;;;5106025;27;20055;-77
2022/03/10 08:39:24;;;;;;;26.27;12.13;;;7.10;76.10;;;;;;5108576;27;20043;-77
2022/03/10 08:41:51;;;;;;;22.20;11.48;;;7.20;76.50;;;;;;5117482;27;20043;-77
2022/03/10 08:44:19;;;;;;;24.58;12.05;;;7.40;76.10;;;;;;5084421;27;20569;-79
2022/03/10 08:46:45;;;;;;;26.13;11.95;;;7.50;76.70;;;;;;5100793;27;20390;-79
2022/03/10 08:49:10;;;;;;;21.95;11.68;;;7.60;76.50;;;;;;5117264;27;20039;-80
2022/03/10 08:51:37;;;;;;;21.88;12.00;;;7.70;75.70;;;;;;5100123;27;20061;-80
2022/03/10 08:54:02;;;;;;;22.00;12.27;;;7.80;76.50;;;;;;5100729;27;20081;-80
2022/03/10 08:56:28;;;;;;;23.52;11.50;;;7.80;75.20;;;;;;5118082;27;20071;-80
2022/03/10 08:58:54;;;;;;;23.23;12.05;;;7.80;75.40;;;;;;5122540;27;20043;-78
2022/03/10 09:01:19;;;;;;;21.45;11.48;;;7.80;75.10;;;;;;5117881;27;20062;-80
2022/03/10 09:03:45;;;;;;;20.05;11.77;;;8.00;75.80;;;;;;5100515;27;20047;-80
2022/03/10 09:06:13;;;;;;;23.55;12.32;;;8.00;75.10;;;;;;5099888;27;20043;-78
2022/03/10 09:08:39;;;;;;;24.33;11.52;;;8.10;75.60;;;;;;5117146;27;20140;-78
2022/03/10 09:11:06;;;;;;;20.85;11.52;;;8.30;75.60;;;;;;5099939;27;20039;-78
2022/03/10 09:13:33;;;;;;;20.52;11.18;;;8.40;75.10;;;;;;5117329;27;20119;-78
2022/03/10 09:15:58;;;;;;;18.90;11.85;;;8.40;75.30;;;;;;5117142;27;20043;-78
2022/03/10 09:18:24;;;;;;;24.17;12.48;;;8.60;74.70;;;;;;5117139;27;20038;-78
2022/03/10 09:20:50;;;;;;;26.40;12.52;;;8.70;74.70;;;;;;5117385;27;20047;-78
2022/03/10 09:23:16;;;;;;;23.13;11.95;;;8.80;75.20;;;;;;5117012;27;20047;-77
2022/03/10 09:25:41;;;;;;;20.48;12.00;;;8.90;74.90;;;;;;5117010;27;20051;-79
2022/03/10 09:28:07;;;;;;;21.35;11.52;;;9.10;74.80;;;;;;5118394;27;20457;-74
2022/03/10 09:30:33;;;;;;;22.25;11.88;;;9.20;74.60;;;;;;5100417;27;20043;-78
2022/03/10 09:32:59;;;;;;;20.65;11.50;;;9.30;74.50;;;;;;5117080;27;20040;-79
2022/03/10 09:35:25;;;;;;;22.23;11.50;;;9.40;74.10;;;;;;5116984;27;20082;-79
2022/03/10 09:37:52;;;;;;;19.20;10.77;;;9.60;74.40;;;;;;5116832;27;20125;-79
2022/03/10 09:40:18;;;;;;;19.85;11.75;;;9.80;74.30;;;;;;5116342;27;20138;-80
2022/03/10 09:42:48;;;;;;;21.15;11.48;;;10.00;72.90;;;;;;5116531;27;20078;-79
2022/03/10 09:45:16;;;;;;;22.33;11.80;;;10.00;72.70;;;;;;5115904;27;20047;-79
2022/03/10 09:47:45;;;;;;;20.63;11.38;;;10.10;73.60;;;;;;5115767;27;20076;-79
2022/03/10 09:50:13;;;;;;;21.23;11.88;;;10.30;73.20;;;;;;5116100;27;20158;-80
2022/03/10 09:52:41;;;;;;;18.58;11.23;;;10.40;73.10;;;;;;5116707;27;20051;-80
2022/03/10 09:55:08;;;;;;;19.83;11.70;;;10.40;72.70;;;;;;5116597;27;20129;-80
2022/03/10 09:57:38;;;;;;;22.33;11.52;;;10.50;72.60;;;;;;5116563;28;20047;-80
2022/03/10 10:00:05;;;;;;;34.80;12.57;;;10.60;72.10;;;;;;5116435;27;20043;-79
2022/03/10 10:02:31;;;;;;;23.77;11.52;;;10.70;72.40;;;;;;5116444;27;20043;-80
2022/03/10 10:04:57;;;;;;;22.40;12.45;;;10.90;71.60;;;;;;5116386;27;20130;-80
2022/03/10 10:07:27;;;;;;;20.42;11.23;;;11.00;72.50;;;;;;5099554;27;20470;-79
2022/03/10 10:09:56;;;;;;;20.60;12.07;;;11.20;72.50;;;;;;5116399;28;20039;-80
2022/03/10 10:12:31;;;;;;;23.88;13.48;;;11.40;71.30;;;;;;5114829;27;20047;-81
2022/03/10 10:14:58;;;;;;;22.50;12.18;;;11.70;71.90;;;;;;5120501;27;20038;-80
2022/03/10 10:17:32;;;;;;;20.67;12.35;;;11.70;71.30;;;;;;5120821;28;20039;-79
2022/03/10 10:20:00;;;;;;;20.55;10.98;;;11.80;71.40;;;;;;5102049;27;20493;-75
2022/03/10 10:22:27;;;;;;;21.55;12.02;;;11.90;71.80;;;;;;5119789;27;20048;-78
2022/03/10 10:24:58;;;;;;;18.83;11.70;;;11.50;70.00;;;;;;5136392;27;20492;-80
2022/03/10 10:27:34;;;;;;;21.58;12.45;;;11.40;71.70;;;;;;5119788;27;20039;-79
2022/03/10 10:30:05;;;;;;;21.80;12.13;;;11.40;71.00;;;;;;5133341;27;20042;-81
2022/03/10 10:32:52;;;;;;;20.15;11.63;;;11.50;70.60;;;;;;5116270;27;20051;-81
2022/03/10 10:35:20;;;;;;;25.25;12.60;;;11.60;71.00;;;;;;5137097;27;20043;-83
2022/03/10 10:37:49;;;;;;;20.63;12.40;;;11.80;70.40;;;;;;5136187;27;20046;-83
2022/03/10 10:40:19;;;;;;;20.45;12.13;;;12.00;69.90;;;;;;5136683;27;20131;-79
2022/03/10 10:42:45;;;;;;;21.10;11.93;;;12.00;67.80;;;;;;5136617;27;20049;-80
2022/03/10 10:45:26;;;;;;;23.95;11.90;;;12.10;69.70;;;;;;5102546;27;20042;-80
2022/03/10 10:48:12;;;;;;;20.10;11.98;;;12.30;68.60;;;;;;5136455;27;20054;-81
2022/03/10 10:50:41;;;;;;;22.48;11.73;;;12.50;70.60;;;;;;5136100;27;20545;-81
2022/03/10 10:53:08;;;;;;;19.10;11.70;;;13.00;69.10;;;;;;5136523;27;20115;-78
2022/03/10 10:55:41;;;;;;;21.02;11.85;;;13.10;70.00;;;;;;5136403;27;20126;-78
2022/03/10 10:58:08;;;;;;;21.08;12.25;;;13.20;69.20;;;;;;5138576;27;20054;-78
2022/03/10 11:00:42;;;;;;;21.38;11.90;;;12.80;68.70;;;;;;5140452;27;20508;-75
2022/03/10 11:03:38;;;;;;;21.13;12.82;;;12.80;67.40;;;;;;5123387;27;20057;-80
2022/03/10 11:06:03;;;;;;;21.45;11.95;;;13.20;69.00;;;;;;5109328;27;20047;-79
2022/03/10 11:08:29;;;;;;;18.52;12.10;;;13.50;68.70;;;;;;5113285;27;20043;-79
2022/03/10 11:10:55;;;;;;;20.42;12.95;;;13.80;67.50;;;;;;5105593;27;20043;-79
2022/03/10 11:13:22;;;;;;;23.95;12.45;;;14.20;68.80;;;;;;5119527;27;20051;-78
2022/03/10 11:15:50;;;;;;;20.90;12.48;;;14.30;66.50;;;;;;5119221;27;20107;-76
2022/03/10 11:18:15;;;;;;;22.05;12.20;;;14.40;66.30;;;;;;5102408;27;20043;-77
2022/03/10 11:20:50;;;;;;;22.65;13.27;;;14.40;66.70;;;;;;5119094;27;20039;-76
2022/03/10 11:23:38;;;;;;;19.95;11.95;;;14.30;66.00;;;;;;5134395;27;20429;-78
2022/03/10 11:26:22;;;;;;;20.80;12.55;;;14.50;65.20;;;;;;5111564;27;20051;-85
2022/03/10 11:28:50;;;;;;;21.05;11.57;;;15.00;66.20;;;;;;5123400;27;20043;-80
2022/03/10 11:31:16;;;;;;;19.55;12.18;;;15.10;62.10;;;;;;5117503;27;20051;-82
2022/03/10 11:33:43;;;;;;;20.25;13.10;;;14.80;62.20;;;;;;5118889;27;20047;-75
2022/03/10 11:36:26;;;;;;;20.80;12.93;;;14.70;62.50;;;;;;5119708;27;20506;-74
2022/03/10 11:38:52;;;;;;;20.98;11.82;;;14.80;62.00;;;;;;5118924;27;20047;-74
2022/03/10 11:41:18;;;;;;;19.67;11.88;;;15.00;64.10;;;;;;5119180;27;20474;-79
2022/03/10 11:43:58;;;;;;;19.67;12.60;;;15.40;61.70;;;;;;5119107;27;20395;-74
2022/03/10 11:46:26;;;;;;;18.85;12.20;;;15.10;60.00;;;;;;5137160;27;20046;-78
2022/03/10 11:49:06;;;;;;;26.00;12.95;;;15.00;61.10;;;;;;5118542;27;20047;-78
2022/03/10 11:51:44;;;;;;;20.08;12.63;;;15.30;61.80;;;;;;5101098;27;20062;-78
2022/03/10 11:54:11;;;;;;;20.10;12.90;;;15.80;62.60;;;;;;5118265;27;20054;-73
2022/03/10 11:56:43;;;;;;;23.52;13.05;;;16.30;62.60;;;;;;5118209;27;20502;-72
2022/03/10 11:59:31;;;;;;;20.45;12.95;;;16.10;62.30;;;;;;5118488;27;20123;-74
2022/03/10 12:01:57;;;;;;;21.73;12.60;;;16.40;62.60;;;;;;5118440;27;20050;-72
2022/03/10 12:04:33;;;;;;;21.50;13.02;;;16.30;61.10;;;;;;5118500;27;20047;-77
2022/03/10 12:06:59;;;;;;;23.13;13.93;;;16.80;60.60;;;;;;5101173;27;20066;-77
2022/03/10 12:09:33;;;;;;;20.73;13.07;;;16.70;60.40;;;;;;5099984;27;20047;-77
2022/03/10 12:12:16;;;;;;;22.00;13.25;;;16.70;60.40;;;;;;5117518;27;20091;-77
2022/03/10 12:14:42;;;;;;;23.48;12.60;;;16.60;60.70;;;;;;5100984;27;20130;-78
2022/03/10 12:17:42;;;;;;;20.92;13.00;;;16.60;59.70;;;;;;5117681;27;20043;-77
2022/03/10 12:20:11;;;;;;;22.52;12.43;;;16.30;60.30;;;;;;5117785;27;20043;-78
2022/03/10 12:22:37;;;;;;;21.35;13.52;;;16.50;59.60;;;;;;5117881;27;20086;-78
2022/03/10 12:25:20;;;;;;;30.25;13.18;;;16.70;58.10;;;;;;5083791;27;20066;-74
2022/03/10 12:27:56;;;;;;;20.23;12.57;;;16.70;60.00;;;;;;5100650;27;20482;-74
2022/03/10 12:30:27;;;;;;;25.17;13.10;;;16.50;59.00;;;;;;5117713;27;20087;-72
2022/03/10 12:32:54;;;;;;;22.08;13.38;;;16.70;60.00;;;;;;5117824;27;20447;-75
2022/03/10 12:35:26;;;;;;;22.70;12.57;;;16.90;56.40;;;;;;5138487;27;20047;-81
2022/03/10 12:37:52;;;;;;;22.90;13.55;;;16.40;56.90;;;;;;5118769;27;20126;-80
2022/03/10 12:40:26;;;;;;;22.20;13.30;;;16.60;59.60;;;;;;5117426;27;20125;-81
2022/03/10 12:43:05;;;;;;;22.60;13.25;;;17.00;56.10;;;;;;5117209;27;20082;-80